This is the latest recevied weather packets stored in our database for station/object YO2LDK-13. If no packets are shown the sender has not sent any weather packets the latest 10 day(s).
| Time | Temp. | Humidity | Pressure | Rain* | Wind** | Luminosity | Snow |
|---|---|---|---|---|---|---|---|
| 1777840520 | 9.44° C | 61% | 1008.8 hPa | 0 mm | - | 0 W/m² | - |
| 1777840224 | 9.44° C | 60% | 1009.1 hPa | 0 mm | - | 0 W/m² | - |
| 1777839919 | 9.44° C | 59% | 1008.8 hPa | 0 mm | - | 0 W/m² | - |
| 1777839619 | 10° C | 58% | 1008.8 hPa | 0 mm | - | 0 W/m² | - |
| 1777839320 | 10° C | 58% | 1008.8 hPa | 0 mm | - | 0 W/m² | - |
| 1777838719 | 9.44° C | 59% | 1009.1 hPa | 0 mm | - | 0 W/m² | - |
| 1777836920 | 10° C | 59% | 1009.1 hPa | 0 mm | - | 0 W/m² | - |
| 1777836020 | 10.56° C | 57% | 1009.1 hPa | 0 mm | - | 0 W/m² | - |
| 1777835119 | 10.56° C | 57% | 1009.1 hPa | 0 mm | - | 0 W/m² | - |
| 1777834819 | 11.11° C | 56% | 1008.8 hPa | 0 mm | - | 0 W/m² | - |
| 1777833320 | 11.67° C | 56% | 1008.8 hPa | 0 mm | - | 0 W/m² | - |
| 1777833020 | 12.22° C | 54% | 1008.5 hPa | 0 mm | - | 0 W/m² | - |
| 1777832720 | 12.22° C | 53% | 1008.5 hPa | 0 mm | - | 0 W/m² | - |
| 1777832420 | 12.78° C | 54% | 1008.5 hPa | 0 mm | - | 0 W/m² | - |
| 1777831820 | 13.33° C | 52% | 1008.5 hPa | 0 mm | - | 0 W/m² | - |
| 1777830920 | 14.44° C | 49% | 1008.5 hPa | 0 mm | - | 1 W/m² | - |
| 1777828519 | 17.22° C | 37% | 1008.5 hPa | 0 mm | - | 11 W/m² | - |
| 1777825820 | 19.44° C | 31% | 1008.1 hPa | 0 mm | - | 27 W/m² | - |
| 1777821620 | 19.44° C | 31% | 1008.5 hPa | 0 mm | - | 235 W/m² | - |
| 1777821320 | 20° C | 31% | 1008.5 hPa | 0 mm | - | 252 W/m² | - |
| 1777819220 | 20.56° C | 28% | 1008.8 hPa | 0 mm | - | 373 W/m² | - |
| 1777817720 | 21.11° C | 32% | 1009.1 hPa | 0 mm | - | 449 W/m² | - |
| 1777817421 | 21.11° C | 30% | 1009.5 hPa | 0 mm | - | 468 W/m² | - |
| 1777815020 | 20.56° C | 32% | 1009.8 hPa | 0 mm | - | 229 W/m² | - |
| 1777814420 | 20.56° C | 31% | 1009.8 hPa | 0 mm | - | 412 W/m² | - |
* Rain latest hour (hover to see other rain measurements)
** Current wind speed in m/s (hover to see current wind gust speed)